createdAt,value
2017-03-25T00:00:26.815Z,0
2017-03-25T00:01:07.266Z,0
2017-03-25T00:01:47.691Z,0
2017-03-25T00:02:28.214Z,0
2017-03-25T00:03:08.628Z,0
2017-03-25T00:03:49.054Z,0
2017-03-25T00:04:29.434Z,0
2017-03-25T00:05:09.855Z,0
2017-03-25T00:05:50.290Z,0
2017-03-25T00:06:30.704Z,0
2017-03-25T00:07:11.157Z,0
2017-03-25T00:07:51.582Z,0
2017-03-25T00:08:31.983Z,0
2017-03-25T00:09:12.380Z,0
2017-03-25T00:09:52.767Z,0
2017-03-25T00:10:33.206Z,0
2017-03-25T00:11:13.664Z,0
2017-03-25T00:11:54.105Z,0
2017-03-25T00:12:34.480Z,0
2017-03-25T00:13:14.894Z,0
2017-03-25T00:13:55.363Z,0
2017-03-25T00:14:35.796Z,0
2017-03-25T00:15:16.178Z,0
2017-03-25T00:15:56.584Z,0
2017-03-25T00:16:37.003Z,0
2017-03-25T00:17:17.481Z,0
2017-03-25T00:17:57.859Z,0
2017-03-25T00:18:38.313Z,0
2017-03-25T00:19:18.713Z,0
2017-03-25T00:19:59.137Z,0
2017-03-25T00:20:39.539Z,0
2017-03-25T00:21:19.941Z,0
2017-03-25T00:22:00.361Z,0
2017-03-25T00:22:40.767Z,0
2017-03-25T00:23:21.148Z,0
2017-03-25T00:24:01.611Z,0
2017-03-25T00:24:42.007Z,0
2017-03-25T00:25:22.476Z,0
2017-03-25T00:26:02.878Z,0
2017-03-25T00:26:43.256Z,0
2017-03-25T00:27:23.709Z,0
2017-03-25T00:28:04.148Z,0
2017-03-25T00:28:44.636Z,0
2017-03-25T00:29:25.054Z,0
2017-03-25T00:30:05.507Z,0
2017-03-25T00:30:45.835Z,0
2017-03-25T00:31:26.307Z,0
2017-03-25T00:32:06.682Z,0
2017-03-25T00:32:47.104Z,0
2017-03-25T00:33:27.502Z,0
2017-03-25T00:34:07.943Z,0
2017-03-25T00:34:48.497Z,0
2017-03-25T00:35:28.912Z,0
2017-03-25T00:36:09.280Z,0
2017-03-25T00:36:49.695Z,0
2017-03-25T00:37:30.157Z,0
2017-03-25T00:38:10.622Z,0
2017-03-25T00:38:51.017Z,0
2017-03-25T00:39:31.529Z,0
2017-03-25T00:40:11.900Z,0
2017-03-25T00:40:54.150Z,0
2017-03-25T00:41:34.584Z,0
2017-03-25T00:42:15.056Z,0
2017-03-25T00:42:55.454Z,0
2017-03-25T00:43:35.844Z,0
2017-03-25T00:44:16.283Z,0
2017-03-25T00:44:56.782Z,0
2017-03-25T00:45:37.118Z,0
2017-03-25T00:46:17.569Z,0
2017-03-25T00:46:57.975Z,0
2017-03-25T00:47:38.347Z,0
2017-03-25T00:48:18.825Z,0
2017-03-25T00:48:59.231Z,0
2017-03-25T00:49:39.684Z,0
2017-03-25T00:50:20.163Z,0
2017-03-25T00:51:01.432Z,0
2017-03-25T00:51:41.859Z,0
2017-03-25T00:52:22.346Z,0
2017-03-25T00:53:02.845Z,0
2017-03-25T00:53:44.217Z,0
2017-03-25T00:54:24.577Z,0
2017-03-25T00:55:06.628Z,0
2017-03-25T00:55:46.999Z,0
2017-03-25T00:56:29.154Z,0
2017-03-25T00:57:09.570Z,0
2017-03-25T00:57:50.005Z,0
2017-03-25T00:58:30.429Z,0
2017-03-25T00:59:10.888Z,0
2017-03-25T00:59:51.271Z,0
2017-03-25T01:00:31.706Z,0
2017-03-25T01:01:12.153Z,0
2017-03-25T01:01:52.537Z,0
2017-03-25T01:02:33.017Z,0
2017-03-25T01:03:13.460Z,0
2017-03-25T01:03:53.943Z,0
2017-03-25T01:04:34.425Z,0
2017-03-25T01:05:14.819Z,0
2017-03-25T01:05:55.240Z,0
2017-03-25T01:06:35.661Z,0
2017-03-25T01:07:16.073Z,0
2017-03-25T01:07:56.456Z,0
2017-03-25T01:08:36.847Z,0
2017-03-25T01:09:17.270Z,0
2017-03-25T01:11:42.701Z,0
2017-03-25T01:12:31.117Z,0
2017-03-25T01:13:19.736Z,0
2017-03-25T01:14:08.235Z,0
2017-03-25T01:14:56.713Z,0
2017-03-25T01:15:45.456Z,0
2017-03-25T01:16:32.044Z,0
2017-03-25T01:17:20.035Z,0
2017-03-25T01:18:08.955Z,0
2017-03-25T01:18:57.798Z,0
2017-03-25T01:19:46.526Z,0
2017-03-25T01:20:33.551Z,0
2017-03-25T01:21:14.765Z,0
2017-03-25T01:21:55.169Z,0
2017-03-25T01:22:36.440Z,0
2017-03-25T01:23:18.784Z,0
2017-03-25T01:23:59.185Z,0
2017-03-25T01:24:40.017Z,0
2017-03-25T01:25:20.433Z,0
2017-03-25T01:26:00.836Z,0
2017-03-25T01:26:41.261Z,0
2017-03-25T01:27:21.641Z,0
2017-03-25T01:28:02.081Z,0
2017-03-25T01:28:42.529Z,0
2017-03-25T01:29:22.923Z,0
2017-03-25T01:30:03.364Z,0
2017-03-25T01:30:44.643Z,0
2017-03-25T01:31:25.047Z,0
2017-03-25T01:32:06.226Z,0
2017-03-25T01:32:46.647Z,0
2017-03-25T01:33:27.068Z,0
2017-03-25T01:34:07.494Z,0
2017-03-25T01:34:47.908Z,0
2017-03-25T01:35:28.246Z,0
2017-03-25T01:36:08.887Z,0
2017-03-25T01:36:49.581Z,0
2017-03-25T01:37:29.982Z,0
2017-03-25T01:38:10.346Z,0
2017-03-25T01:38:50.818Z,0
2017-03-25T01:39:32.118Z,0
2017-03-25T01:40:12.512Z,0
2017-03-25T01:40:52.971Z,0
2017-03-25T01:41:34.006Z,0
2017-03-25T01:42:14.381Z,0
2017-03-25T01:42:54.801Z,0
2017-03-25T01:43:35.372Z,0
2017-03-25T01:44:15.788Z,0
2017-03-25T01:44:56.164Z,0
2017-03-25T01:45:36.605Z,0
2017-03-25T01:46:19.798Z,0
2017-03-25T01:47:00.175Z,0
2017-03-25T01:47:40.569Z,0
2017-03-25T01:48:20.959Z,0
2017-03-25T01:49:01.365Z,0
2017-03-25T01:49:41.740Z,0
2017-03-25T01:50:23.049Z,0
2017-03-25T01:51:02.937Z,0
2017-03-25T01:51:43.364Z,0
2017-03-25T01:52:23.753Z,0
2017-03-25T01:53:04.249Z,0
2017-03-25T01:53:47.623Z,0
2017-03-25T01:54:28.047Z,0
2017-03-25T01:55:08.547Z,0
2017-03-25T01:55:48.946Z,0
2017-03-25T01:56:29.336Z,0
2017-03-25T01:57:09.718Z,0
2017-03-25T01:57:50.092Z,0
2017-03-25T01:58:30.514Z,0
2017-03-25T01:59:10.928Z,0
2017-03-25T01:59:51.353Z,0
2017-03-25T02:00:32.281Z,0
2017-03-25T02:01:12.723Z,0
2017-03-25T02:01:53.960Z,0
2017-03-25T02:02:34.916Z,0
2017-03-25T02:03:16.218Z,0
2017-03-25T02:03:56.597Z,0
2017-03-25T02:04:37.254Z,0
2017-03-25T02:05:17.688Z,0
2017-03-25T02:05:59.151Z,0
2017-03-25T02:06:40.810Z,0
2017-03-25T02:07:21.230Z,0
2017-03-25T02:08:02.527Z,0
2017-03-25T02:08:42.913Z,0
2017-03-25T02:09:23.282Z,0
2017-03-25T02:10:03.719Z,0
2017-03-25T02:10:44.112Z,0
2017-03-25T02:11:24.622Z,0
2017-03-25T02:12:05.020Z,0
2017-03-25T02:12:45.399Z,0
2017-03-25T02:13:25.898Z,0
2017-03-25T02:14:06.255Z,0
2017-03-25T02:14:46.675Z,0
2017-03-25T02:15:27.080Z,0
2017-03-25T02:16:07.518Z,0
2017-03-25T02:16:47.943Z,0
2017-03-25T02:17:28.369Z,0
2017-03-25T02:18:09.031Z,0
2017-03-25T02:18:49.392Z,0
2017-03-25T02:19:29.854Z,0
2017-03-25T02:20:10.237Z,0
2017-03-25T02:20:50.638Z,0
2017-03-25T02:21:31.014Z,0
2017-03-25T02:22:11.433Z,0
2017-03-25T02:22:51.887Z,0
2017-03-25T02:23:32.276Z,0
2017-03-25T02:24:12.684Z,0
2017-03-25T02:24:53.189Z,0
2017-03-25T02:25:33.629Z,0
2017-03-25T02:26:14.095Z,0
2017-03-25T02:26:54.491Z,0
2017-03-25T02:27:34.896Z,0
2017-03-25T02:28:15.298Z,0
2017-03-25T02:28:55.624Z,0
2017-03-25T02:29:36.065Z,0
2017-03-25T02:30:16.482Z,0
2017-03-25T02:30:56.877Z,0
2017-03-25T02:31:37.258Z,0
2017-03-25T02:32:17.645Z,0
2017-03-25T02:32:58.097Z,0
2017-03-25T02:33:39.663Z,0
2017-03-25T02:34:20.036Z,0
2017-03-25T02:35:00.449Z,0
2017-03-25T02:35:40.871Z,0
2017-03-25T02:36:21.986Z,0
2017-03-25T02:37:02.411Z,0
2017-03-25T02:37:43.708Z,0
2017-03-25T02:38:25.215Z,0
2017-03-25T02:39:05.617Z,0
2017-03-25T02:39:45.997Z,0
2017-03-25T02:40:26.399Z,0
2017-03-25T02:41:07.662Z,0
2017-03-25T02:41:48.059Z,0
2017-03-25T02:42:28.433Z,0
2017-03-25T02:43:08.876Z,0
2017-03-25T02:43:49.271Z,0
2017-03-25T02:44:30.434Z,0
2017-03-25T02:45:10.839Z,0
2017-03-25T02:45:51.268Z,0
2017-03-25T02:46:31.624Z,0
2017-03-25T02:47:12.116Z,0
2017-03-25T02:47:54.231Z,0
2017-03-25T02:48:34.653Z,0
2017-03-25T02:49:15.031Z,0
2017-03-25T02:49:57.987Z,0
2017-03-25T02:50:39.080Z,0
2017-03-25T02:51:19.515Z,0
2017-03-25T02:51:59.927Z,0
2017-03-25T02:52:40.355Z,0
2017-03-25T02:53:20.803Z,0
2017-03-25T02:54:01.204Z,0
2017-03-25T02:54:41.644Z,0
2017-03-25T02:55:22.097Z,0
2017-03-25T02:56:03.188Z,0
2017-03-25T02:56:43.630Z,0
2017-03-25T02:57:24.686Z,0
2017-03-25T02:58:05.146Z,0
2017-03-25T02:58:45.582Z,0
2017-03-25T02:59:25.952Z,0
2017-03-25T03:00:07.499Z,0
2017-03-25T03:00:47.942Z,0
2017-03-25T03:01:28.313Z,0
2017-03-25T03:02:08.774Z,0
2017-03-25T03:02:50.943Z,0
2017-03-25T03:03:32.612Z,0
2017-03-25T03:04:14.440Z,0
2017-03-25T03:04:54.825Z,0
2017-03-25T03:05:35.235Z,0
2017-03-25T03:06:15.716Z,0
2017-03-25T03:06:56.491Z,0
2017-03-25T03:07:36.899Z,0
2017-03-25T03:08:17.284Z,0
2017-03-25T03:08:57.722Z,0
2017-03-25T03:09:38.115Z,0
2017-03-25T03:10:18.485Z,0
2017-03-25T03:10:58.953Z,0
2017-03-25T03:11:40.130Z,0
2017-03-25T03:12:20.516Z,0
2017-03-25T03:13:01.874Z,0
2017-03-25T03:13:42.317Z,0
2017-03-25T03:14:23.820Z,0
2017-03-25T03:15:05.376Z,0
2017-03-25T03:15:45.787Z,0
2017-03-25T03:16:26.247Z,0
2017-03-25T03:17:07.446Z,0
2017-03-25T03:17:47.890Z,0
2017-03-25T03:18:28.341Z,0
2017-03-25T03:19:09.505Z,0
2017-03-25T03:19:49.880Z,0
2017-03-25T03:20:30.303Z,0
2017-03-25T03:21:10.707Z,0
2017-03-25T03:21:51.172Z,0
2017-03-25T03:22:31.614Z,0
2017-03-25T03:23:12.005Z,0
2017-03-25T03:23:53.368Z,0
2017-03-25T03:24:34.636Z,0
2017-03-25T03:25:15.032Z,0
2017-03-25T03:25:55.452Z,0
2017-03-25T03:26:36.610Z,0
2017-03-25T03:27:17.021Z,0
2017-03-25T03:27:57.458Z,0
2017-03-25T03:28:38.345Z,0
2017-03-25T03:29:19.393Z,0
2017-03-25T03:29:59.813Z,0
2017-03-25T03:30:40.213Z,0
2017-03-25T03:31:20.583Z,0
2017-03-25T03:32:01.905Z,0
2017-03-25T03:32:42.307Z,0
2017-03-25T03:33:22.723Z,0
2017-03-25T03:34:03.112Z,0
2017-03-25T03:34:43.503Z,0
2017-03-25T03:35:23.883Z,0
2017-03-25T03:36:04.300Z,0
2017-03-25T03:36:44.685Z,0
2017-03-25T03:37:25.061Z,0
2017-03-25T03:38:06.298Z,0
2017-03-25T03:38:46.856Z,0
2017-03-25T03:39:27.199Z,0
2017-03-25T03:40:07.643Z,0
2017-03-25T03:40:48.384Z,0
2017-03-25T03:41:31.289Z,0
2017-03-25T03:42:12.620Z,0
2017-03-25T03:42:53.072Z,0
2017-03-25T03:43:33.447Z,0
2017-03-25T03:44:13.889Z,0
2017-03-25T03:44:54.310Z,0
2017-03-25T03:45:34.717Z,0
2017-03-25T03:46:15.107Z,0
2017-03-25T03:46:55.514Z,0
2017-03-25T03:47:35.933Z,0
2017-03-25T03:48:16.364Z,0
2017-03-25T03:48:56.744Z,0
2017-03-25T03:49:37.195Z,0
2017-03-25T03:50:17.596Z,0
2017-03-25T03:50:57.970Z,0
2017-03-25T03:51:38.416Z,0
2017-03-25T03:52:18.810Z,0
2017-03-25T03:52:59.239Z,0
2017-03-25T03:53:40.285Z,0
2017-03-25T03:54:20.731Z,0
2017-03-25T03:55:01.081Z,0
2017-03-25T03:55:42.399Z,0
2017-03-25T03:56:22.801Z,0
2017-03-25T03:57:03.820Z,0
2017-03-25T03:57:44.252Z,0
2017-03-25T03:58:24.624Z,0
2017-03-25T03:59:05.047Z,0
2017-03-25T03:59:46.266Z,0
2017-03-25T04:00:26.751Z,0
2017-03-25T04:01:07.199Z,0
2017-03-25T04:01:47.628Z,0
2017-03-25T04:02:28.877Z,0
2017-03-25T04:03:10.145Z,0
2017-03-25T04:03:50.581Z,0
2017-03-25T04:04:30.990Z,0
2017-03-25T04:05:11.447Z,0
2017-03-25T04:05:52.652Z,0
2017-03-25T04:06:33.667Z,0
2017-03-25T04:07:14.871Z,0
2017-03-25T04:07:56.202Z,0
2017-03-25T04:08:36.605Z,0
2017-03-25T04:09:17.012Z,0
2017-03-25T04:09:58.383Z,0
2017-03-25T04:10:38.773Z,0
2017-03-25T04:11:19.226Z,0
2017-03-25T04:11:59.589Z,0
2017-03-25T04:12:40.716Z,0
2017-03-25T04:13:21.096Z,0
2017-03-25T04:14:01.553Z,0
2017-03-25T04:14:41.973Z,0
2017-03-25T04:15:22.386Z,0
2017-03-25T04:16:02.782Z,0
2017-03-25T04:16:43.457Z,0
2017-03-25T04:17:25.351Z,0
2017-03-25T04:18:05.729Z,0
2017-03-25T04:18:46.101Z,0
2017-03-25T04:19:26.517Z,0
2017-03-25T04:20:07.025Z,0
2017-03-25T04:20:48.265Z,0
2017-03-25T04:21:32.134Z,0
2017-03-25T04:22:12.580Z,0
2017-03-25T04:22:53.448Z,0
2017-03-25T04:23:33.981Z,0
2017-03-25T04:24:15.286Z,0
2017-03-25T04:24:56.473Z,0
2017-03-25T04:25:37.805Z,0
2017-03-25T04:26:19.150Z,0
2017-03-25T04:27:00.049Z,0
2017-03-25T04:27:40.514Z,0
2017-03-25T04:28:21.469Z,0
2017-03-25T04:29:01.864Z,0
2017-03-25T04:29:42.421Z,0
2017-03-25T04:30:22.799Z,0
2017-03-25T04:31:03.242Z,0
2017-03-25T04:31:44.299Z,0
2017-03-25T04:32:25.277Z,0
2017-03-25T04:33:05.702Z,0
2017-03-25T04:33:46.999Z,0
2017-03-25T04:34:27.366Z,0
2017-03-25T04:35:07.802Z,0
2017-03-25T04:35:48.247Z,0
2017-03-25T04:36:30.475Z,0
2017-03-25T04:37:20.876Z,0
2017-03-25T04:38:02.439Z,0
2017-03-25T04:38:42.329Z,0
2017-03-25T04:39:23.955Z,0
2017-03-25T04:40:04.357Z,0
2017-03-25T04:40:45.468Z,0
2017-03-25T04:41:27.702Z,0
2017-03-25T04:42:08.649Z,0
2017-03-25T04:42:49.085Z,0
2017-03-25T04:43:29.479Z,0
2017-03-25T04:44:10.696Z,0
2017-03-25T04:44:51.076Z,0
2017-03-25T04:45:32.454Z,0
2017-03-25T04:46:14.121Z,0
2017-03-25T04:46:54.560Z,0
2017-03-25T04:47:34.984Z,0
2017-03-25T04:48:15.428Z,4
2017-03-25T04:48:55.812Z,4
2017-03-25T04:49:36.157Z,4
2017-03-25T04:50:16.580Z,0
2017-03-25T04:50:57.057Z,4
2017-03-25T04:51:37.470Z,4
2017-03-25T04:52:18.203Z,4
2017-03-25T04:52:58.589Z,8
2017-03-25T04:53:38.975Z,4
2017-03-25T04:54:19.404Z,8
2017-03-25T04:54:59.806Z,4
2017-03-25T04:55:40.171Z,8
2017-03-25T04:56:21.427Z,12
2017-03-25T04:57:01.875Z,12
2017-03-25T04:57:42.353Z,8
2017-03-25T04:58:22.738Z,16
2017-03-25T04:59:03.243Z,16
2017-03-25T04:59:43.612Z,16
2017-03-25T05:00:24.044Z,20
2017-03-25T05:01:04.438Z,20
2017-03-25T05:01:44.884Z,24
2017-03-25T05:02:25.265Z,28
2017-03-25T05:03:05.683Z,32
2017-03-25T05:03:46.125Z,32
2017-03-25T05:04:26.533Z,40
2017-03-25T05:05:06.931Z,40
2017-03-25T05:05:47.296Z,44
2017-03-25T05:06:27.737Z,48
2017-03-25T05:07:08.135Z,52
2017-03-25T05:07:48.542Z,60
2017-03-25T05:08:29.797Z,64
2017-03-25T05:09:10.194Z,72
2017-03-25T05:09:50.666Z,76
2017-03-25T05:10:31.040Z,84
2017-03-25T05:11:11.481Z,92
2017-03-25T05:11:51.873Z,100
2017-03-25T05:12:32.267Z,104
2017-03-25T05:13:12.675Z,112
2017-03-25T05:13:53.072Z,120
2017-03-25T05:14:33.430Z,132
2017-03-25T05:15:13.895Z,140
2017-03-25T05:15:54.322Z,148
2017-03-25T05:16:34.737Z,160
2017-03-25T05:17:15.123Z,172
2017-03-25T05:17:55.512Z,184
2017-03-25T05:18:35.955Z,200
2017-03-25T05:19:16.337Z,212
2017-03-25T05:19:56.716Z,224
2017-03-25T05:20:37.114Z,240
2017-03-25T05:21:17.548Z,260
2017-03-25T05:21:57.963Z,276
2017-03-25T05:22:38.323Z,288
2017-03-25T05:23:18.726Z,308
2017-03-25T05:23:59.128Z,328
2017-03-25T05:24:39.554Z,352
2017-03-25T05:25:19.969Z,368
2017-03-25T05:26:00.341Z,392
2017-03-25T05:26:40.771Z,416
2017-03-25T05:27:21.195Z,440
2017-03-25T05:28:01.634Z,464
2017-03-25T05:28:42.026Z,488
2017-03-25T05:29:22.391Z,516
2017-03-25T05:30:02.799Z,540
2017-03-25T05:30:43.219Z,568
2017-03-25T05:31:23.600Z,600
2017-03-25T05:32:03.973Z,628
2017-03-25T05:32:44.407Z,664
2017-03-25T05:33:24.763Z,696
2017-03-25T05:34:05.198Z,732
2017-03-25T05:34:45.611Z,768
2017-03-25T05:35:26.056Z,796
2017-03-25T05:36:06.497Z,836
2017-03-25T05:36:46.904Z,872
2017-03-25T05:37:27.293Z,904
2017-03-25T05:38:07.667Z,936
2017-03-25T05:38:48.348Z,972
2017-03-25T05:39:28.767Z,1004
2017-03-25T05:40:09.195Z,1040
2017-03-25T05:40:49.597Z,1072
2017-03-25T05:41:30.953Z,1112
2017-03-25T05:42:11.301Z,1148
2017-03-25T05:42:51.739Z,1188
2017-03-25T05:43:32.134Z,1232
2017-03-25T05:44:12.478Z,1272
2017-03-25T05:44:52.913Z,1320
2017-03-25T05:45:33.325Z,1360
2017-03-25T05:46:13.748Z,1400
2017-03-25T05:46:54.120Z,1440
2017-03-25T05:47:34.517Z,1484
2017-03-25T05:48:14.957Z,1528
2017-03-25T05:48:55.365Z,1568
2017-03-25T05:49:35.769Z,1612
2017-03-25T05:50:16.170Z,1656
2017-03-25T05:50:56.577Z,1704
2017-03-25T05:51:37.005Z,1748
2017-03-25T05:52:17.401Z,1792
2017-03-25T05:52:57.799Z,1828
2017-03-25T05:53:38.226Z,1864
2017-03-25T05:54:18.633Z,1896
2017-03-25T05:54:59.006Z,1928
2017-03-25T05:55:39.432Z,1960
2017-03-25T05:56:19.852Z,1992
2017-03-25T05:57:00.242Z,2024
2017-03-25T05:57:40.643Z,2056
2017-03-25T05:58:21.033Z,2084
2017-03-25T05:59:01.447Z,2116
2017-03-25T05:59:41.841Z,2152
2017-03-25T06:00:22.234Z,2196
2017-03-25T06:01:02.627Z,2236
2017-03-25T06:01:43.097Z,2280
2017-03-25T06:02:23.478Z,2336
2017-03-25T06:03:03.910Z,2384
2017-03-25T06:03:44.308Z,2424
2017-03-25T06:04:24.719Z,2460
2017-03-25T06:05:05.151Z,2504
2017-03-25T06:05:45.542Z,2556
2017-03-25T06:06:25.956Z,2624
2017-03-25T06:07:06.342Z,2696
2017-03-25T06:07:46.774Z,2812
2017-03-25T06:08:27.177Z,2944
2017-03-25T06:09:07.572Z,3060
2017-03-25T06:09:47.984Z,3148
2017-03-25T06:10:35.628Z,3292
2017-03-25T06:11:16.970Z,3500
2017-03-25T06:11:57.378Z,3596
2017-03-25T06:12:37.799Z,3576
2017-03-25T06:13:18.165Z,3520
2017-03-25T06:13:58.650Z,3548
2017-03-25T06:14:39.013Z,3604
2017-03-25T06:15:19.480Z,3712
2017-03-25T06:15:59.856Z,3736
2017-03-25T06:16:40.310Z,3792
2017-03-25T06:17:20.673Z,3832
2017-03-25T06:18:01.062Z,3908
2017-03-25T06:18:41.449Z,3916
2017-03-25T06:19:21.902Z,3916
2017-03-25T06:20:02.294Z,3968
2017-03-25T06:20:42.736Z,4020
2017-03-25T06:21:23.124Z,4080
2017-03-25T06:22:03.537Z,4136
2017-03-25T06:22:43.894Z,4172
2017-03-25T06:23:24.303Z,4224
2017-03-25T06:24:04.692Z,4284
2017-03-25T06:24:45.158Z,4332
2017-03-25T06:25:25.573Z,4384
2017-03-25T06:26:05.955Z,4456
2017-03-25T06:26:46.328Z,4528
2017-03-25T06:27:26.764Z,4604
2017-03-25T06:28:07.136Z,4664
2017-03-25T06:28:47.550Z,4732
2017-03-25T06:29:27.985Z,4780
2017-03-25T06:30:09.162Z,4836
2017-03-25T06:30:52.230Z,4884
2017-03-25T06:31:33.470Z,4948
2017-03-25T06:32:17.339Z,5028
2017-03-25T06:33:02.200Z,5120
2017-03-25T06:33:42.732Z,5196
2017-03-25T06:34:23.994Z,5252
2017-03-25T06:35:05.872Z,5288
2017-03-25T06:35:46.830Z,5344
2017-03-25T06:36:28.654Z,5392
2017-03-25T06:37:09.054Z,5420
2017-03-25T06:37:50.019Z,5440
2017-03-25T06:38:34.230Z,5484
2017-03-25T06:39:16.304Z,5516
2017-03-25T06:39:58.706Z,5544
2017-03-25T06:40:39.147Z,5572
2017-03-25T06:41:20.196Z,5624
2017-03-25T06:42:01.122Z,5656
2017-03-25T06:42:44.125Z,5704
2017-03-25T06:43:24.544Z,5804
2017-03-25T06:44:04.988Z,5872
2017-03-25T06:44:45.974Z,5964
2017-03-25T06:45:26.435Z,5956
2017-03-25T06:46:06.870Z,6016
2017-03-25T06:46:47.856Z,6104
2017-03-25T06:47:28.297Z,6180
2017-03-25T06:48:11.155Z,6236
2017-03-25T06:48:51.590Z,6252
2017-03-25T06:49:32.022Z,6268
2017-03-25T06:50:18.235Z,6324
2017-03-25T06:50:59.411Z,6364
2017-03-25T06:51:39.893Z,6396
2017-03-25T06:52:21.255Z,6404
2017-03-25T06:53:01.609Z,6412
2017-03-25T06:53:42.090Z,6448
2017-03-25T06:54:23.965Z,6496
2017-03-25T06:55:05.010Z,6544
2017-03-25T06:55:46.889Z,6580
2017-03-25T06:56:29.166Z,6624
2017-03-25T06:57:11.480Z,6688
2017-03-25T06:57:51.907Z,6772
2017-03-25T06:58:32.316Z,6876
2017-03-25T06:59:12.769Z,6972
2017-03-25T06:59:54.177Z,7024
2017-03-25T07:00:34.372Z,7056
2017-03-25T07:01:18.248Z,7064
2017-03-25T07:01:58.664Z,7092
2017-03-25T07:02:40.659Z,7116
2017-03-25T07:03:21.103Z,7088
2017-03-25T07:04:02.132Z,7028
2017-03-25T07:04:44.163Z,7060
2017-03-25T07:05:26.503Z,6792
2017-03-25T07:06:06.884Z,6868
2017-03-25T07:06:51.654Z,6736
2017-03-25T07:07:35.744Z,6708
2017-03-25T07:08:17.022Z,6620
2017-03-25T07:08:59.659Z,6944
2017-03-25T07:09:42.662Z,7300
2017-03-25T07:10:29.751Z,7372
2017-03-25T07:11:10.884Z,7084
2017-03-25T07:13:27.405Z,7684
2017-03-25T07:14:07.728Z,7756
2017-03-25T07:14:48.155Z,7748
2017-03-25T07:15:33.090Z,7628
2017-03-25T07:16:16.047Z,7256
2017-03-25T07:16:57.081Z,7464
2017-03-25T07:17:42.189Z,7568
2017-03-25T07:18:22.632Z,7412
2017-03-25T07:19:03.937Z,7640
2017-03-25T07:19:45.890Z,7592
2017-03-25T07:20:26.445Z,7552
2017-03-25T07:21:10.265Z,7736
2017-03-25T07:21:51.346Z,7588
2017-03-25T07:22:33.141Z,7376
2017-03-25T07:23:13.608Z,7876
2017-03-25T07:23:54.006Z,8144
2017-03-25T07:24:35.236Z,8040
2017-03-25T07:25:16.560Z,8600
2017-03-25T07:25:57.651Z,8896
2017-03-25T07:26:38.788Z,9068
2017-03-25T07:27:19.256Z,9184
2017-03-25T07:27:59.667Z,9084
2017-03-25T07:28:40.201Z,9048
2017-03-25T07:29:21.498Z,8888
2017-03-25T07:30:01.968Z,8680
2017-03-25T07:30:42.350Z,8476
2017-03-25T07:31:28.177Z,8464
2017-03-25T07:32:09.535Z,8268
2017-03-25T07:32:50.727Z,8104
2017-03-25T07:33:31.865Z,8500
2017-03-25T07:34:12.837Z,8912
2017-03-25T07:34:54.104Z,8836
2017-03-25T07:35:36.183Z,8724
2017-03-25T07:36:18.210Z,8844
2017-03-25T07:36:58.661Z,8616
2017-03-25T07:37:39.075Z,8812
2017-03-25T07:38:19.419Z,9104
2017-03-25T07:39:01.106Z,8840
2017-03-25T07:39:41.546Z,8928
2017-03-25T07:40:22.637Z,9196
2017-03-25T07:41:05.693Z,9504
2017-03-25T07:41:46.153Z,9684
2017-03-25T07:42:28.199Z,9752
2017-03-25T07:43:10.330Z,9984
2017-03-25T07:43:51.919Z,10156
2017-03-25T07:44:32.341Z,9912
2017-03-25T07:46:48.665Z,10300
2017-03-25T07:47:29.798Z,11132
2017-03-25T07:48:12.522Z,11292
2017-03-25T07:48:54.790Z,11192
2017-03-25T07:49:35.191Z,11100
2017-03-25T07:50:16.514Z,11248
2017-03-25T07:50:57.793Z,11768
2017-03-25T07:51:38.219Z,11984
2017-03-25T07:52:18.758Z,11996
2017-03-25T07:52:59.140Z,12052
2017-03-25T07:53:40.021Z,12084
2017-03-25T07:54:22.359Z,12148
2017-03-25T07:55:03.669Z,12136
2017-03-25T07:55:44.807Z,12168
2017-03-25T07:56:26.530Z,12216
2017-03-25T07:57:07.674Z,12428
2017-03-25T07:57:49.040Z,12580
2017-03-25T07:58:29.517Z,12560
2017-03-25T07:59:10.429Z,12484
2017-03-25T07:59:51.301Z,12680
2017-03-25T08:00:33.523Z,13044
2017-03-25T08:01:15.702Z,13448
2017-03-25T08:05:19.108Z,18944
2017-03-25T08:06:01.769Z,31040
2017-03-25T08:10:31.271Z,62624
2017-03-25T08:13:01.638Z,63808
2017-03-25T08:17:11.504Z,64896
2017-03-25T08:19:38.132Z,62624
2017-03-25T08:20:18.554Z,63680
2017-03-25T08:20:58.956Z,64000
2017-03-25T08:21:39.390Z,64352
2017-03-25T08:23:58.341Z,65920
2017-03-25T08:24:38.996Z,67008
2017-03-25T08:25:19.400Z,70272
2017-03-25T08:25:59.786Z,71360
2017-03-25T08:26:40.210Z,67072
2017-03-25T08:27:20.629Z,66976
2017-03-25T08:28:01.052Z,67456
2017-03-25T08:28:41.481Z,64832
2017-03-25T08:29:21.948Z,63648
2017-03-25T08:30:02.355Z,64480
2017-03-25T08:30:42.716Z,66912
2017-03-25T08:31:23.187Z,69088
2017-03-25T08:32:03.586Z,68512
2017-03-25T08:32:44.664Z,65504
2017-03-25T08:33:25.149Z,60192
2017-03-25T08:34:05.632Z,59552
2017-03-25T08:34:46.041Z,62624
2017-03-25T08:35:28.047Z,67136
2017-03-25T08:36:08.168Z,68160
2017-03-25T08:36:48.577Z,66400
2017-03-25T08:37:29.882Z,65184
2017-03-25T08:38:12.433Z,67648
2017-03-25T08:38:52.829Z,73120
2017-03-25T08:39:33.243Z,76480
2017-03-25T08:40:15.297Z,75456
2017-03-25T08:40:55.731Z,72640
2017-03-25T08:41:36.221Z,72384
2017-03-25T08:42:16.582Z,71520
2017-03-25T08:42:57.007Z,73216
2017-03-25T08:43:37.464Z,75584
2017-03-25T08:44:18.621Z,76736
2017-03-25T08:44:59.209Z,78112
2017-03-25T08:45:39.693Z,76448
2017-03-25T08:46:20.116Z,73696
2017-03-25T08:47:00.554Z,74560
2017-03-25T08:47:40.935Z,73248
2017-03-25T08:48:21.372Z,75488
2017-03-25T08:49:02.377Z,73408
2017-03-25T08:49:45.689Z,71104
2017-03-25T08:50:26.217Z,67808
2017-03-25T08:51:06.567Z,69760
2017-03-25T08:51:47.019Z,74144
2017-03-25T08:52:27.434Z,73760
2017-03-25T08:53:08.055Z,73120
2017-03-25T08:53:48.317Z,73696
2017-03-25T08:54:28.783Z,78880
2017-03-25T08:55:09.182Z,79904
2017-03-25T08:55:49.618Z,79744
2017-03-25T08:56:30.115Z,76256
2017-03-25T08:57:10.556Z,80640
2017-03-25T08:57:50.952Z,78688
2017-03-25T08:58:32.036Z,73952
2017-03-25T08:59:12.374Z,70688
2017-03-25T08:59:53.635Z,70336
2017-03-25T09:00:34.010Z,73472
2017-03-25T09:01:15.315Z,74368
2017-03-25T09:01:56.448Z,75840
2017-03-25T09:02:36.898Z,77440
2017-03-25T09:03:18.235Z,79296
2017-03-25T09:03:58.720Z,78912
2017-03-25T09:04:39.130Z,81088
2017-03-25T09:05:19.536Z,79072
2017-03-25T09:05:59.950Z,75936
2017-03-25T09:06:40.397Z,74528
2017-03-25T09:07:20.826Z,74688
2017-03-25T09:08:01.288Z,74944
2017-03-25T09:08:42.660Z,75424
2017-03-25T09:09:23.109Z,75392
2017-03-25T09:10:03.517Z,76128
2017-03-25T09:10:45.724Z,77792
2017-03-25T09:11:26.107Z,78016
2017-03-25T09:12:06.545Z,76768
2017-03-25T09:12:46.918Z,76064
2017-03-25T09:13:27.364Z,76896
2017-03-25T09:14:07.764Z,80640
2017-03-25T09:14:48.198Z,81024
2017-03-25T09:15:28.678Z,82016
2017-03-25T09:16:09.123Z,80928
2017-03-25T09:16:49.569Z,83072
2017-03-25T09:17:30.053Z,82496
2017-03-25T09:18:10.493Z,80192
2017-03-25T09:18:50.932Z,77536
2017-03-25T09:19:31.478Z,81216
2017-03-25T09:20:11.926Z,85376
2017-03-25T09:20:52.348Z,82752
2017-03-25T09:21:32.764Z,83136
2017-03-25T09:22:14.115Z,84640
2017-03-25T09:22:55.151Z,87136
2017-03-25T09:23:35.553Z,84000
2017-03-25T09:24:16.005Z,85056
2017-03-25T09:24:58.228Z,89568
2017-03-25T09:25:38.682Z,93216
2017-03-25T09:26:19.046Z,92320
2017-03-25T09:26:59.535Z,94240
2017-03-25T09:27:39.986Z,93216
2017-03-25T09:28:20.386Z,91680
2017-03-25T09:29:00.831Z,94048
2017-03-25T09:29:41.225Z,95392
2017-03-25T09:30:21.658Z,94240
2017-03-25T09:31:02.093Z,93312
2017-03-25T09:31:42.564Z,95040
2017-03-25T09:32:23.650Z,94592
2017-03-25T09:33:04.806Z,93536
2017-03-25T09:33:45.256Z,93248
2017-03-25T09:34:25.683Z,95840
2017-03-25T09:35:06.191Z,93344
2017-03-25T09:35:46.558Z,91872
2017-03-25T09:36:27.054Z,95776
2017-03-25T09:38:41.217Z,91008
2017-03-25T09:39:21.665Z,90304
2017-03-25T09:40:02.096Z,89024
2017-03-25T09:40:42.585Z,86624
2017-03-25T09:43:01.638Z,79712
2017-03-25T09:43:42.036Z,83584
2017-03-25T09:44:23.423Z,88768
2017-03-25T09:45:03.835Z,88096
2017-03-25T09:45:44.291Z,90528
2017-03-25T09:46:25.228Z,93184
2017-03-25T09:47:05.651Z,93792
2017-03-25T09:47:46.141Z,94336
2017-03-25T09:48:27.200Z,95072
2017-03-25T09:49:07.697Z,94848
2017-03-25T09:51:21.440Z,111488
2017-03-25T09:52:01.885Z,113248
2017-03-25T09:52:42.301Z,109632
2017-03-25T09:53:22.731Z,102304
2017-03-25T09:54:03.221Z,100576
2017-03-25T09:54:43.677Z,96736
2017-03-25T09:55:24.256Z,96864
2017-03-25T09:56:04.694Z,86464
2017-03-25T09:56:45.187Z,78624